Time;durP1;ratioP1;P1;durP2;ratioP2;P2;SDS_P1;SDS_P2;PMS_P1;PMS_P2;Temp;Humidity;BMP_temperature;BMP_pressure;BME280_temperature;BME280_humidity;BME280_pressure;Samples;Min_cycle;Max_cycle;Signal;HPM_P1;HPM_P2
2023/07/16 00:00:57;;;;;;;5.82;1.85;;;;;;;17.61;100.00;100873.63;5090328;28;20024;-37
2023/07/16 00:03:22;;;;;;;;;;;;;;;17.71;100.00;100885.38;5090718;28;20449;-37
2023/07/16 00:05:51;;;;;;;3.97;1.70;;;;;;;17.44;100.00;100891.16;5090297;28;19935;-37
2023/07/16 00:08:16;;;;;;;5.07;1.90;;;;;;;17.22;100.00;100883.25;5089880;28;20029;-37
2023/07/16 00:10:41;;;;;;;7.30;1.65;;;;;;;17.30;100.00;100883.81;5082232;28;20067;-37
2023/07/16 00:13:07;;;;;;;;;;;;;;;17.44;100.00;100890.34;5077011;28;20107;-37
2023/07/16 00:15:32;;;;;;;4.10;1.73;;;;;;;17.24;100.00;100896.66;5076570;28;20360;-37
2023/07/16 00:17:57;;;;;;;5.97;1.70;;;;;;;17.26;100.00;100894.47;5076701;28;20472;-37
2023/07/16 00:20:26;;;;;;;;;;;;;;;17.39;100.00;100893.09;5076922;28;20035;-37
2023/07/16 00:22:52;;;;;;;4.65;1.60;;;;;;;17.24;100.00;100897.47;5076176;28;19909;-37
2023/07/16 00:25:17;;;;;;;4.43;1.55;;;;;;;17.19;100.00;100899.41;5075798;28;20103;-37
2023/07/16 00:27:43;;;;;;;;;;;;;;;17.35;100.00;100903.75;5076229;28;20043;-37
2023/07/16 00:30:09;;;;;;;5.15;1.60;;;;;;;17.13;100.00;100887.66;5076517;28;19908;-37
2023/07/16 00:32:34;;;;;;;5.53;1.80;;;;;;;17.16;100.00;100895.28;5076526;28;20024;-37
2023/07/16 00:35:01;;;;;;;5.22;1.70;;;;;;;17.09;100.00;100902.13;5075861;28;20098;-37
2023/07/16 00:37:27;;;;;;;3.55;1.90;;;;;;;16.98;100.00;100904.84;5075571;28;20020;-37
2023/07/16 00:39:52;;;;;;;8.70;2.78;;;;;;;16.92;100.00;100900.47;5075429;28;20021;-37
2023/07/16 00:42:17;;;;;;;;;;;;;;;17.10;100.00;100910.03;5076559;28;20103;-37
2023/07/16 00:44:43;;;;;;;4.80;1.70;;;;;;;16.92;100.00;100902.38;5075743;28;19948;-37
2023/07/16 00:47:08;;;;;;;;;;;;;;;17.06;100.00;100903.47;5076728;28;20032;-37
2023/07/16 00:49:34;;;;;;;3.72;1.45;;;;;;;16.99;100.00;100908.41;5075877;28;19909;-37
2023/07/16 00:52:00;;;;;;;;;;;;;;;17.08;100.00;100897.72;5076338;28;20036;-37
2023/07/16 00:54:26;;;;;;;4.88;1.55;;;;;;;16.95;100.00;100905.38;5075503;28;20418;-37
2023/07/16 00:56:51;;;;;;;;;;;;;;;17.08;100.00;100898.59;5076267;28;20035;-37
2023/07/16 00:59:16;;;;;;;5.80;1.53;;;;;;;16.91;100.00;100906.19;5075690;28;20006;-37
2023/07/16 01:01:42;;;;;;;;;;;;;;;16.99;100.00;100901.03;5075523;28;20297;-37
2023/07/16 01:04:07;;;;;;;5.75;1.92;;;;;;;16.83;100.00;100907.53;5075332;28;19917;-37
2023/07/16 01:06:40;;;;;;;;;;;;;;;16.92;100.00;100907.84;5076006;28;20028;-37
2023/07/16 01:09:20;;;;;;;5.22;1.55;;;;;;;16.78;100.00;100912.19;5075884;28;19912;-37
2023/07/16 01:11:47;;;;;;;4.25;1.80;;;;;;;16.62;100.00;100914.03;5075694;28;20465;-37
2023/07/16 01:14:14;;;;;;;8.55;1.85;;;;;;;16.68;100.00;100907.50;5075106;28;20032;-37
2023/07/16 01:16:41;;;;;;;7.65;2.08;;;;;;;16.58;100.00;100908.28;5075928;28;20354;-37
2023/07/16 01:19:06;;;;;;;6.35;1.73;;;;;;;16.55;100.00;100897.94;5075227;28;20096;-37
2023/07/16 01:21:38;;;;;;;;;;;;;;;16.70;100.00;100903.41;5074742;28;20520;-36
2023/07/16 01:24:34;;;;;;;4.90;1.65;;;;;;;16.67;100.00;100895.75;5074544;28;19908;-37
2023/07/16 01:27:27;;;;;;;7.30;1.70;;;;;;;16.56;100.00;100894.09;5075486;28;20071;-37
2023/07/16 01:29:59;;;;;;;6.70;1.80;;;;;;;16.46;100.00;100896.81;5075039;28;20025;-36
2023/07/16 01:32:25;;;;;;;4.70;1.80;;;;;;;16.45;100.00;100892.44;5075375;28;20060;-37
2023/07/16 01:34:52;;;;;;;;;;;;;;;16.62;100.00;100897.66;5075943;28;20055;-36
2023/07/16 01:37:17;;;;;;;7.25;1.65;;;;;;;16.43;100.00;100897.34;5075461;28;19998;-36
2023/07/16 01:39:42;;;;;;;;;;;;;;;16.59;100.00;100899.03;5074698;28;20115;-37
2023/07/16 01:42:08;;;;;;;4.63;1.58;;;;;;;16.34;100.00;100894.31;5074827;28;20322;-36
2023/07/16 01:44:33;;;;;;;;;;;;;;;16.48;100.00;100900.06;5074977;28;20453;-37
2023/07/16 01:47:14;;;;;;;7.65;2.30;;;;;;;16.32;100.00;100903.84;5074483;28;19923;-37
2023/07/16 01:49:42;;;;;;;5.22;1.77;;;;;;;16.28;100.00;100905.47;5074734;28;20028;-37
2023/07/16 01:52:09;;;;;;;6.72;2.20;;;;;;;16.26;100.00;100904.94;5074395;28;20032;-37
2023/07/16 01:54:35;;;;;;;5.68;1.88;;;;;;;16.20;100.00;100901.34;5074043;28;20043;-37
2023/07/16 01:57:01;;;;;;;4.40;1.98;;;;;;;16.34;100.00;100905.22;5075158;28;20431;-37
2023/07/16 01:59:26;;;;;;;;;;;;;;;16.45;100.00;100906.09;5075047;28;20072;-37
2023/07/16 02:01:51;;;;;;;11.80;3.47;;;;;;;16.31;100.00;100902.22;5074525;28;19958;-37
2023/07/16 02:04:16;;;;;;;;;;;;;;;16.44;100.00;100902.50;5074926;28;20107;-37
2023/07/16 02:06:42;;;;;;;4.83;1.67;;;;;;;16.25;100.00;100889.63;5073941;28;19912;-37
2023/07/16 02:09:07;;;;;;;;;;;;;;;16.41;100.00;100892.16;5075145;28;20682;-36
2023/07/16 02:11:33;;;;;;;4.18;1.85;;;;;;;16.18;100.00;100896.16;5074866;28;19912;-37
2023/07/16 02:13:58;;;;;;;;;;;;;;;16.33;100.00;100897.31;5074508;28;20070;-37
2023/07/16 02:16:23;;;;;;;6.53;1.77;;;;;;;16.21;100.00;100895.63;5074044;28;19912;-37
2023/07/16 02:18:49;;;;;;;;;;;;;;;16.30;100.00;100903.28;5074207;28;20283;-37
2023/07/16 02:21:14;;;;;;;5.13;1.63;;;;;;;16.04;100.00;100884.09;5074547;28;19912;-37
2023/07/16 02:23:39;;;;;;;;;;;;;;;16.22;100.00;100902.72;5073934;28;20282;-37
2023/07/16 02:26:05;;;;;;;7.97;2.20;;;;;;;16.02;100.00;100899.91;5073520;28;19912;-37
2023/07/16 02:28:30;;;;;;;;;;;;;;;16.12;100.00;100905.41;5074454;28;20274;-37
2023/07/16 02:30:56;;;;;;;4.47;1.70;;;;;;;15.98;100.00;100903.44;5074119;28;20352;-37
2023/07/16 02:33:21;;;;;;;;;;;;;;;16.08;100.00;100917.94;5073883;28;20273;-37
2023/07/16 02:35:48;;;;;;;5.43;2.20;;;;;;;16.02;100.00;100908.09;5073457;28;19916;-37
2023/07/16 02:38:14;;;;;;;4.47;1.80;;;;;;;16.10;100.00;100912.22;5073804;28;20273;-36
2023/07/16 02:40:46;;;;;;;;;;;;;;;16.16;100.00;100914.72;5074138;28;20050;-37
2023/07/16 02:43:11;;;;;;;5.55;2.30;;;;;;;16.10;100.00;100912.22;5073259;28;19908;-36
2023/07/16 02:45:36;;;;;;;;;;;;;;;16.23;100.00;100918.00;5074641;28;20035;-37
2023/07/16 02:48:02;;;;;;;6.13;2.17;;;;;;;16.20;100.00;100928.63;5073349;28;20414;-37
2023/07/16 02:50:27;;;;;;;;;;;;;;;16.29;100.00;100921.56;5074161;28;20278;-37
2023/07/16 02:52:53;;;;;;;4.33;2.20;;;;;;;16.27;100.00;100925.66;5073850;28;20374;-37
2023/07/16 02:55:18;;;;;;;;;;;;;;;16.34;100.00;100923.50;5074241;28;20270;-37
2023/07/16 02:57:43;;;;;;;4.47;2.20;;;;;;;16.15;100.00;100923.16;5073818;28;20003;-36
2023/07/16 03:00:09;;;;;;;;;;;;;;;16.30;100.00;100925.97;5073266;28;20471;-37
2023/07/16 03:02:34;;;;;;;5.05;2.00;;;;;;;16.26;100.00;100924.03;5074233;28;19912;-37
2023/07/16 03:04:59;;;;;;;;;;;;;;;16.29;100.00;100926.22;5073592;28;20477;-37
2023/07/16 03:07:25;;;;;;;6.40;1.92;;;;;;;16.26;100.00;100929.50;5073394;28;19912;-37
2023/07/16 03:09:50;;;;;;;;;;;;;;;16.29;100.00;100923.47;5073527;28;20034;-37
2023/07/16 03:12:15;;;;;;;6.00;1.90;;;;;;;16.12;100.00;100921.78;5073350;28;19999;-37
2023/07/16 03:14:41;;;;;;;;;;;;;;;16.25;100.00;100920.50;5073765;28;20294;-37
2023/07/16 03:17:06;;;;;;;5.10;2.10;;;;;;;16.09;100.00;100918.75;5074139;28;19916;-36
2023/07/16 03:19:32;;;;;;;;;;;;;;;16.22;100.00;100938.19;5073608;28;20275;-37
2023/07/16 03:21:57;;;;;;;4.75;2.10;;;;;;;16.14;100.00;100935.97;5072944;28;20387;-37
2023/07/16 03:24:22;;;;;;;;;;;;;;;16.18;100.00;100937.09;5073666;28;20028;-37
2023/07/16 03:26:48;;;;;;;6.55;2.20;;;;;;;16.07;100.00;100932.69;5073518;28;19964;-36
2023/07/16 03:29:13;;;;;;;;;;;;;;;16.18;100.00;100942.53;5073574;28;20028;-36
2023/07/16 03:31:38;;;;;;;7.03;2.07;;;;;;;16.04;100.00;100933.19;5072949;28;20372;-37
2023/07/16 03:34:03;;;;;;;;;;;;;;;16.17;100.00;100945.53;5073283;28;20687;-36
2023/07/16 03:36:29;;;;;;;8.40;2.30;;;;;;;15.99;100.00;100949.53;5073458;28;19920;-37
2023/07/16 03:38:54;;;;;;;;;;;;;;;16.08;100.00;100956.13;5073394;28;20381;-37
2023/07/16 03:41:19;;;;;;;8.07;2.50;;;;;;;16.02;100.00;100954.47;5073132;28;19935;-37
2023/07/16 03:43:44;;;;;;;;;;;;;;;16.09;100.00;100968.69;5073776;28;20352;-37
2023/07/16 03:46:10;;;;;;;6.23;3.07;;;;;;;15.97;100.00;100957.16;5075529;28;19919;-37
2023/07/16 03:48:35;;;;;;;;;;;;;;;16.04;100.00;100965.94;5076949;28;20281;-36
2023/07/16 03:51:01;;;;;;;5.45;3.10;;;;;;;15.89;100.00;100963.13;5077071;28;19912;-36
2023/07/16 03:53:26;;;;;;;;;;;;;;;16.03;100.00;100969.75;5077644;28;20478;-36
2023/07/16 03:55:51;;;;;;;6.60;2.70;;;;;;;15.90;100.00;100979.19;5076897;28;19935;-36
2023/07/16 03:58:17;;;;;;;6.88;3.03;;;;;;;15.91;100.00;100980.06;5076506;28;20282;-36
2023/07/16 04:00:42;;;;;;;;;;;;;;;15.98;100.00;100983.34;5077079;28;20106;-36
2023/07/16 04:03:08;;;;;;;6.00;2.80;;;;;;;15.81;100.00;100978.06;5076752;28;19908;-37
2023/07/16 04:05:33;;;;;;;;;;;;;;;15.94;100.00;100993.13;5077571;28;20060;-36
2023/07/16 04:07:58;;;;;;;8.30;2.83;;;;;;;15.73;100.00;100983.19;5077009;28;20408;-36
2023/07/16 04:10:24;;;;;;;;;;;;;;;15.90;100.00;100986.56;5077050;28;20884;-36
2023/07/16 04:12:49;;;;;;;9.07;2.63;;;;;;;15.66;100.00;100976.06;5076130;28;19998;-36
2023/07/16 04:15:14;;;;;;;;;;;;;;;15.84;100.00;100993.91;5076475;28;20059;-37
2023/07/16 04:17:40;;;;;;;8.15;3.00;;;;;;;15.74;100.00;100993.81;5076302;28;20368;-36
2023/07/16 04:20:06;;;;;;;;;;;;;;;15.82;100.00;101003.44;5076659;28;20115;-36
2023/07/16 04:22:33;;;;;;;4.50;2.80;;;;;;;15.66;100.00;100999.75;5076142;28;19913;-36
2023/07/16 04:24:58;;;;;;;6.72;2.70;;;;;;;15.74;100.00;101003.91;5076046;28;20526;-36
2023/07/16 04:27:24;;;;;;;;;;;;;;;15.83;100.00;101007.81;5076774;28;20032;-36
2023/07/16 04:29:49;;;;;;;7.38;2.88;;;;;;;15.82;100.00;101011.63;5075986;28;19916;-36
2023/07/16 04:32:14;;;;;;;;;;;;;;;15.90;100.00;101011.09;5076428;28;20048;-36
2023/07/16 04:34:40;;;;;;;8.13;3.00;;;;;;;15.81;100.00;101010.78;5075596;28;19913;-36
2023/07/16 04:37:05;;;;;;;;;;;;;;;15.94;100.00;101023.97;5076958;28;20330;-37
2023/07/16 04:39:30;;;;;;;6.47;3.10;;;;;;;15.86;100.00;101034.53;5075731;28;19912;-37
2023/07/16 04:41:56;;;;;;;;;;;;;;;15.96;100.00;101040.09;5076240;28;20036;-36
2023/07/16 04:44:21;;;;;;;8.93;3.07;;;;;;;15.84;99.45;101025.78;5075470;28;19958;-36
2023/07/16 04:46:46;;;;;;;;;;;;;;;15.93;100.00;101035.97;5076183;28;20271;-36
2023/07/16 04:49:11;;;;;;;7.17;2.63;;;;;;;15.87;99.59;101036.19;5075696;28;19912;-36
2023/07/16 04:51:37;;;;;;;;;;;;;;;15.98;100.00;101042.53;5075853;28;20247;-36
2023/07/16 04:54:02;;;;;;;6.55;2.75;;;;;;;15.86;99.79;101029.91;5075546;28;20363;-36
2023/07/16 04:56:27;;;;;;;;;;;;;;;16.04;99.60;101047.75;5075914;28;20032;-36
2023/07/16 04:58:53;;;;;;;9.67;3.27;;;;;;;15.83;99.57;101040.53;5075434;28;19916;-37
2023/07/16 05:01:18;;;;;;;;;;;;;;;16.00;99.72;101054.81;5075963;28;20263;-36
2023/07/16 05:03:43;;;;;;;6.80;3.00;;;;;;;15.98;98.97;101054.25;5075355;28;19909;-36
2023/07/16 05:06:09;;;;;;;;;;;;;;;16.03;99.08;101051.56;5076371;28;20029;-36
2023/07/16 05:08:34;;;;;;;8.05;3.08;;;;;;;16.00;99.06;101052.09;5075572;28;19931;-36
2023/07/16 05:11:00;;;;;;;;;;;;;;;16.15;98.25;101060.41;5076285;28;20032;-36
2023/07/16 05:13:26;;;;;;;7.38;2.78;;;;;;;16.18;97.97;101059.03;5074895;28;19915;-36
2023/07/16 05:15:51;;;;;;;;;;;;;;;16.24;97.79;101055.25;5076477;28;20033;-36
2023/07/16 05:18:17;;;;;;;6.28;3.20;;;;;;;16.10;97.60;101049.44;5075330;28;20395;-37
2023/07/16 05:20:42;;;;;;;;;;;;;;;16.32;97.58;101065.69;5075801;28;20020;-36
2023/07/16 05:23:07;;;;;;;7.83;3.40;;;;;;;16.31;97.13;101057.75;5074926;28;19908;-37
2023/07/16 05:25:32;;;;;;;;;;;;;;;16.47;98.02;101059.47;5074858;28;20285;-37
2023/07/16 05:27:58;;;;;;;7.47;3.53;;;;;;;16.49;95.27;101065.47;5074893;28;19908;-37
2023/07/16 05:30:23;;;;;;;;;;;;;;;16.61;96.51;101062.56;5075279;28;20267;-37
2023/07/16 05:32:48;;;;;;;8.97;3.73;;;;;;;16.47;96.05;101067.66;5074250;28;19998;-36
2023/07/16 05:35:14;;;;;;;;;;;;;;;16.62;96.53;101070.47;5074590;28;20298;-37
2023/07/16 05:37:39;;;;;;;7.63;3.72;;;;;;;16.52;94.57;101073.16;5074078;28;19912;-37
2023/07/16 05:40:08;;;;;;;;;;;;;;;16.69;95.79;101067.53;5074664;28;20040;-36
2023/07/16 05:42:34;;;;;;;6.80;3.50;;;;;;;16.62;92.83;101081.41;5074870;28;20272;-37
2023/07/16 05:44:59;;;;;;;;;;;;;;;16.76;93.85;101075.50;5074642;28;20040;-37
2023/07/16 05:47:24;;;;;;;12.10;3.70;;;;;;;16.71;92.71;101073.53;5074195;28;20024;-37
2023/07/16 05:49:49;;;;;;;;;;;;;;;16.84;93.88;101080.44;5074724;28;20289;-37
2023/07/16 05:52:15;;;;;;;15.77;4.00;;;;;;;16.74;92.51;101078.50;5074072;28;19966;-37
2023/07/16 05:54:40;;;;;;;;;;;;;;;16.92;94.00;101097.13;5074461;28;20274;-37
2023/07/16 05:57:06;;;;;;;7.65;3.55;;;;;;;16.85;93.38;101091.09;5074291;28;19954;-37
2023/07/16 05:59:36;;;;;;;;;;;;;;;17.01;92.33;101091.97;5075287;28;20044;-37
2023/07/16 06:02:01;;;;;;;6.43;3.42;;;;;;;16.95;91.71;101082.94;5073880;28;19919;-41
2023/07/16 06:04:26;;;;;;;;;;;;;;;17.07;91.52;101092.81;5074818;28;20112;-37
2023/07/16 06:06:52;;;;;;;7.10;3.70;;;;;;;16.93;90.31;101082.41;5074367;28;19977;-37
2023/07/16 06:09:17;;;;;;;;;;;;;;;17.18;91.76;101095.31;5073549;28;20427;-37
2023/07/16 06:11:46;;;;;;;6.63;3.53;;;;;;;17.14;90.21;101088.75;5073907;28;19912;-38
2023/07/16 06:14:11;;;;;;;7.93;3.50;;;;;;;17.16;88.92;101097.47;5073757;28;20039;-37
2023/07/16 06:16:37;;;;;;;9.13;3.95;;;;;;;17.20;89.02;101098.59;5074258;28;20028;-37
2023/07/16 06:19:02;;;;;;;;;;;;;;;17.33;90.54;101093.72;5074234;28;20063;-37
2023/07/16 06:21:27;;;;;;;7.63;3.53;;;;;;;17.22;88.17;101088.19;5074801;28;20018;-37
2023/07/16 06:23:52;;;;;;;;;;;;;;;17.43;89.12;101107.41;5074326;28;20267;-37
2023/07/16 06:26:18;;;;;;;11.27;4.00;;;;;;;17.35;87.88;101089.59;5073601;28;19962;-37
2023/07/16 06:28:43;;;;;;;;;;;;;;;17.46;88.85;101099.47;5074167;28;20271;-37
2023/07/16 06:31:08;;;;;;;11.05;4.10;;;;;;;17.35;88.12;101094.25;5073807;28;19924;-37
2023/07/16 06:33:34;;;;;;;;;;;;;;;17.46;88.95;101101.38;5074248;28;20024;-37
2023/07/16 06:35:59;;;;;;;9.00;4.03;;;;;;;17.47;89.37;101111.22;5073953;28;19919;-37
2023/07/16 06:38:24;;;;;;;;;;;;;;;17.57;88.72;101116.72;5074012;28;20332;-37
2023/07/16 06:40:52;;;;;;;8.23;4.10;;;;;;;17.45;89.29;101107.94;5073941;28;20259;-36
2023/07/16 06:43:18;;;;;;;8.68;3.95;;;;;;;17.56;87.63;101128.75;5073659;28;20025;-37
2023/07/16 06:45:43;;;;;;;6.93;3.85;;;;;;;17.68;89.83;101125.75;5073635;28;20031;-37
2023/07/16 06:48:09;;;;;;;9.55;4.57;;;;;;;17.63;88.88;101136.69;5073495;28;20035;-37
2023/07/16 06:50:34;;;;;;;;;;;;;;;17.75;88.00;101120.88;5074550;28;20028;-37
2023/07/16 06:53:00;;;;;;;7.90;3.92;;;;;;;17.66;87.39;101126.00;5073422;28;19912;-37
2023/07/16 06:55:25;;;;;;;;;;;;;;;17.83;87.91;101123.06;5073904;28;20063;-37
2023/07/16 06:57:50;;;;;;;9.00;4.40;;;;;;;17.71;88.44;101120.59;5073588;28;19919;-36
2023/07/16 07:00:16;;;;;;;;;;;;;;;17.92;87.32;101131.56;5074620;28;20295;-36
2023/07/16 07:02:41;;;;;;;9.23;4.13;;;;;;;17.77;84.90;101128.81;5073667;28;19912;-36
2023/07/16 07:05:07;;;;;;;;;;;;;;;17.97;86.85;101137.84;5073808;28;20111;-37
2023/07/16 07:07:32;;;;;;;6.75;4.22;;;;;;;17.98;86.49;101142.22;5073332;28;19912;-36
2023/07/16 07:09:58;;;;;;;;;;;;;;;18.12;85.45;101147.97;5074015;28;20028;-36
2023/07/16 07:12:23;;;;;;;6.90;4.20;;;;;;;18.14;86.42;101150.44;5073053;28;19951;-36
2023/07/16 07:14:48;;;;;;;;;;;;;;;18.19;86.04;101156.72;5073404;28;20293;-36
2023/07/16 07:17:14;;;;;;;9.10;3.97;;;;;;;18.09;84.51;101151.25;5072935;28;19912;-36
2023/07/16 07:19:41;;;;;;;11.20;4.32;;;;;;;18.13;83.90;101168.78;5073397;28;20025;-37
2023/07/16 07:22:06;;;;;;;7.68;4.40;;;;;;;18.16;86.36;101161.94;5076858;28;20028;-37
2023/07/16 07:24:31;;;;;;;;;;;;;;;18.30;86.72;101178.63;5077696;28;20079;-36
2023/07/16 07:26:56;;;;;;;10.37;4.40;;;;;;;18.26;83.98;101160.03;5078062;28;19909;-36
2023/07/16 07:29:22;;;;;;;;;;;;;;;18.37;85.45;101160.81;5077581;28;20282;-37
2023/07/16 07:31:47;;;;;;;8.10;4.47;;;;;;;18.32;83.28;101163.56;5077187;28;19915;-36
2023/07/16 07:34:12;;;;;;;;;;;;;;;18.49;84.60;101168.75;5077760;28;20758;-37
2023/07/16 07:36:37;;;;;;;8.37;4.50;;;;;;;18.53;84.76;101159.69;5077043;28;19970;-37
2023/07/16 07:39:03;;;;;;;;;;;;;;;18.63;83.24;101164.34;5077016;28;20290;-37
2023/07/16 07:41:28;;;;;;;7.95;4.18;;;;;;;18.61;82.68;101161.06;5077187;28;19916;-37
2023/07/16 07:43:53;;;;;;;10.15;5.15;;;;;;;18.69;84.08;101156.97;5076614;28;20519;-37
2023/07/16 07:46:19;;;;;;;;;;;;;;;18.88;83.31;101162.66;5077376;28;20052;-37
2023/07/16 07:48:44;;;;;;;8.80;4.17;;;;;;;18.85;83.15;101165.97;5076831;28;19965;-37
2023/07/16 07:51:09;;;;;;;;;;;;;;;18.90;82.18;101166.78;5076855;28;20302;-37
2023/07/16 07:53:34;;;;;;;9.40;4.77;;;;;;;18.84;83.26;101164.31;5076661;28;19920;-36
2023/07/16 07:56:00;;;;;;;;;;;;;;;18.91;82.79;101179.38;5077680;28;20259;-36
2023/07/16 07:58:25;;;;;;;10.95;4.63;;;;;;;18.91;81.68;101171.16;5076312;28;20030;-37
2023/07/16 08:00:50;;;;;;;8.77;4.53;;;;;;;18.97;82.76;101169.22;5076571;28;20024;-37
2023/07/16 08:03:16;;;;;;;10.13;4.50;;;;;;;19.01;81.00;101171.13;5077319;28;20457;-37
2023/07/16 08:05:41;;;;;;;9.68;4.35;;;;;;;19.04;80.83;101167.84;5076836;28;20033;-37
2023/07/16 08:08:06;;;;;;;8.07;4.38;;;;;;;19.16;80.14;101178.47;5076750;28;20029;-37
2023/07/16 08:10:32;;;;;;;;;;;;;;;19.27;80.95;101171.81;5077113;28;20028;-37
2023/07/16 08:12:57;;;;;;;7.85;4.03;;;;;;;19.28;82.21;101167.19;5077081;28;19916;-37
2023/07/16 08:15:22;;;;;;;9.55;4.47;;;;;;;19.37;79.96;101175.63;5077067;28;20374;-37
2023/07/16 08:17:48;;;;;;;6.93;3.72;;;;;;;19.33;78.86;101158.13;5076624;28;20037;-37
2023/07/16 08:20:13;;;;;;;9.05;3.78;;;;;;;19.56;78.54;101176.63;5076180;28;20032;-36
2023/07/16 08:22:39;;;;;;;9.25;4.40;;;;;;;19.60;76.66;101183.22;5076488;28;20025;-36
2023/07/16 08:25:06;;;;;;;8.32;4.03;;;;;;;19.64;78.01;101184.31;5075796;28;20443;-37
2023/07/16 08:27:32;;;;;;;8.05;4.65;;;;;;;19.52;78.70;101178.28;5075990;28;20384;-37
2023/07/16 08:29:57;;;;;;;6.53;3.92;;;;;;;19.64;77.76;101192.53;5076566;28;20020;-37
2023/07/16 08:32:23;;;;;;;9.70;4.13;;;;;;;19.62;76.78;101172.81;5075532;28;20079;-37
2023/07/16 08:34:48;;;;;;;6.63;4.10;;;;;;;19.75;79.50;101185.06;5075883;28;20031;-37
2023/07/16 08:37:14;;;;;;;6.65;4.25;;;;;;;19.78;76.76;101182.56;5076181;28;20069;-36
2023/07/16 08:39:39;;;;;;;8.90;4.18;;;;;;;19.72;78.58;101175.47;5076382;28;20104;-37
2023/07/16 08:42:05;;;;;;;6.13;3.45;;;;;;;20.02;76.44;101184.59;5076137;28;20085;-37
2023/07/16 08:44:31;;;;;;;7.65;4.20;;;;;;;20.13;77.09;101172.44;5075748;28;20397;-37
2023/07/16 08:46:57;;;;;;;5.10;3.47;;;;;;;20.26;77.52;101182.75;5076038;28;20029;-37
2023/07/16 08:49:24;;;;;;;7.78;4.20;;;;;;;20.32;76.42;101194.53;5075702;28;20033;-37
2023/07/16 08:51:51;;;;;;;7.95;4.20;;;;;;;20.28;73.47;101185.22;5075965;28;20040;-37
2023/07/16 08:54:17;;;;;;;7.18;3.83;;;;;;;20.47;74.14;101197.16;5075846;28;20024;-37
2023/07/16 08:56:47;;;;;;;7.05;3.83;;;;;;;20.56;73.63;101191.88;5076114;28;20389;-37
2023/07/16 08:59:14;;;;;;;9.82;3.92;;;;;;;20.86;74.57;101192.66;5075572;28;20105;-37
2023/07/16 09:01:40;;;;;;;6.88;3.80;;;;;;;20.95;71.90;101186.22;5075768;28;20033;-37
2023/07/16 09:04:05;;;;;;;7.40;3.80;;;;;;;21.01;72.26;101173.25;5075364;28;20036;-37
2023/07/16 09:06:30;;;;;;;9.75;3.92;;;;;;;20.90;71.84;101191.78;5075947;28;20086;-37
2023/07/16 09:08:56;;;;;;;8.02;3.75;;;;;;;20.90;72.91;101212.97;5075188;28;20037;-37
2023/07/16 09:11:22;;;;;;;7.55;3.38;;;;;;;20.80;74.58;101211.97;5074930;28;20441;-37
2023/07/16 09:13:50;;;;;;;8.02;4.10;;;;;;;20.61;73.78;101208.28;5075352;28;20023;-37
2023/07/16 09:16:20;;;;;;;7.35;3.70;;;;;;;20.38;74.46;101211.78;5075450;28;20476;-37
2023/07/16 09:18:46;;;;;;;6.80;3.90;;;;;;;20.31;75.66;101217.59;5075020;28;20036;-37
2023/07/16 09:21:12;;;;;;;6.35;3.45;;;;;;;20.32;72.84;101228.28;5074909;28;20028;-37
2023/07/16 09:23:37;;;;;;;7.45;3.63;;;;;;;20.27;72.97;101216.53;5074708;28;20384;-37
2023/07/16 09:26:03;;;;;;;5.57;3.38;;;;;;;20.23;73.49;101219.03;5075585;28;20029;-37
2023/07/16 09:28:30;;;;;;;6.75;3.85;;;;;;;20.24;74.15;101217.91;5074888;28;20419;-37
2023/07/16 09:30:56;;;;;;;5.65;3.40;;;;;;;20.22;76.89;101227.56;5075489;28;20039;-37
2023/07/16 09:33:26;;;;;;;8.45;4.25;;;;;;;20.22;74.15;101231.13;5074999;28;20380;-37
2023/07/16 09:35:51;;;;;;;5.85;3.28;;;;;;;20.17;74.66;101222.91;5075330;28;20047;-38
2023/07/16 09:38:18;;;;;;;8.05;3.65;;;;;;;20.25;76.21;101226.97;5074552;28;20456;-36
2023/07/16 09:40:44;;;;;;;7.28;4.03;;;;;;;20.24;74.92;101223.41;5074695;28;20113;-36
2023/07/16 09:43:12;;;;;;;9.75;3.70;;;;;;;20.37;74.18;101229.38;5074288;28;20021;-36
2023/07/16 09:45:37;;;;;;;7.60;3.72;;;;;;;20.48;75.58;101231.75;5074588;28;20028;-36
2023/07/16 09:48:03;;;;;;;8.32;3.60;;;;;;;20.56;74.21;101233.06;5074278;28;20050;-36
2023/07/16 09:50:31;;;;;;;6.22;3.67;;;;;;;20.60;73.35;101222.34;5074172;28;20110;-36
2023/07/16 09:52:58;;;;;;;6.50;3.60;;;;;;;20.63;75.08;101232.72;5074913;28;20032;-36
2023/07/16 09:55:24;;;;;;;6.70;3.58;;;;;;;20.48;73.75;101236.44;5075150;28;20406;-36
2023/07/16 09:57:52;;;;;;;9.50;4.55;;;;;;;20.45;72.60;101247.97;5074340;28;20423;-36
2023/07/16 10:00:20;;;;;;;7.10;4.00;;;;;;;20.41;74.70;101255.16;5074041;28;20481;-36
2023/07/16 10:02:46;;;;;;;6.85;3.97;;;;;;;20.60;75.39;101241.56;5073902;28;20029;-36
2023/07/16 10:05:19;;;;;;;7.18;3.55;;;;;;;20.74;72.24;101240.59;5074172;28;20029;-37
2023/07/16 10:08:17;;;;;;;5.82;3.33;;;;;;;21.00;72.97;101245.84;5075045;28;20056;-37
2023/07/16 10:11:03;;;;;;;7.47;3.60;;;;;;;21.05;73.67;101248.53;5073591;28;20045;-37
2023/07/16 10:13:28;;;;;;;6.18;3.33;;;;;;;21.14;72.55;101241.28;5074027;28;20473;-37
2023/07/16 10:15:58;;;;;;;5.25;3.28;;;;;;;21.17;72.23;101261.88;5074284;28;20036;-37
2023/07/16 10:18:30;;;;;;;7.15;3.40;;;;;;;21.11;71.53;101252.03;5073592;28;20365;-37
2023/07/16 10:21:09;;;;;;;6.28;3.72;;;;;;;21.01;71.43;101255.72;5074232;28;20385;-37
2023/07/16 10:23:43;;;;;;;8.13;3.72;;;;;;;21.07;72.00;101260.03;5073979;28;20033;-37
2023/07/16 10:26:12;;;;;;;5.57;3.50;;;;;;;21.21;72.13;101260.19;5073916;28;20033;-37
2023/07/16 10:28:39;;;;;;;10.40;4.07;;;;;;;21.28;71.08;101260.66;5073888;28;20036;-37
2023/07/16 10:31:07;;;;;;;7.60;3.35;;;;;;;21.37;70.89;101269.09;5074350;28;20047;-37
2023/07/16 10:33:32;;;;;;;5.65;3.05;;;;;;;21.45;72.95;101266.53;5074304;28;20036;-37
2023/07/16 10:36:01;;;;;;;4.88;3.10;;;;;;;21.38;69.33;101266.06;5073786;28;20396;-37
2023/07/16 10:38:26;;;;;;;6.40;3.20;;;;;;;21.46;70.65;101275.59;5073709;28;20027;-37
2023/07/16 10:40:52;;;;;;;7.28;3.03;;;;;;;21.46;69.83;101275.59;5073699;28;20032;-37
2023/07/16 10:43:18;;;;;;;5.80;3.20;;;;;;;21.65;69.87;101273.69;5073680;28;20035;-37
2023/07/16 10:45:46;;;;;;;5.43;3.47;;;;;;;21.74;68.66;101271.94;5073610;28;20050;-37
2023/07/16 10:48:12;;;;;;;6.90;2.85;;;;;;;21.99;69.12;101273.50;5073564;28;20036;-37
2023/07/16 10:50:38;;;;;;;5.65;2.80;;;;;;;22.18;67.33;101272.72;5073362;28;20420;-37
2023/07/16 10:53:03;;;;;;;5.88;3.00;;;;;;;22.38;65.25;101274.34;5074319;28;20101;-37
2023/07/16 10:55:31;;;;;;;5.88;3.05;;;;;;;22.29;65.50;101276.97;5073998;28;20445;-37
2023/07/16 10:57:57;;;;;;;5.63;2.88;;;;;;;22.02;66.26;101286.69;5073757;28;20047;-37
2023/07/16 11:00:22;;;;;;;5.43;2.88;;;;;;;21.82;65.11;101271.28;5073963;28;20480;-37
2023/07/16 11:02:50;;;;;;;4.80;3.20;;;;;;;21.56;65.61;101291.97;5073788;28;20035;-37
2023/07/16 11:05:16;;;;;;;6.57;2.72;;;;;;;21.28;65.96;101283.47;5073078;28;20032;-37
2023/07/16 11:07:49;;;;;;;6.90;3.33;;;;;;;21.16;69.69;101295.97;5073695;28;20121;-36
2023/07/16 11:10:18;;;;;;;9.27;3.45;;;;;;;20.97;67.74;101301.38;5073319;28;20025;-37
2023/07/16 11:12:44;;;;;;;7.93;3.38;;;;;;;20.96;68.04;101308.00;5073338;28;20028;-37
2023/07/16 11:15:10;;;;;;;7.30;2.83;;;;;;;20.86;67.91;101305.34;5073012;28;20032;-37
2023/07/16 11:17:39;;;;;;;6.82;3.15;;;;;;;20.88;69.94;101311.38;5073644;28;20119;-37
2023/07/16 11:20:07;;;;;;;8.10;2.88;;;;;;;20.95;71.14;101311.88;5071900;28;20025;-37
2023/07/16 11:22:36;;;;;;;7.70;3.03;;;;;;;21.03;68.46;101308.47;5072755;28;20032;-37
2023/07/16 11:25:02;;;;;;;8.48;3.13;;;;;;;21.06;68.34;101313.41;5073192;28;20431;-37
2023/07/16 11:27:32;;;;;;;4.95;2.85;;;;;;;21.21;69.43;101309.69;5073732;28;20518;-37
2023/07/16 11:29:59;;;;;;;4.72;2.70;;;;;;;21.55;68.74;101320.59;5072854;28;20041;-37
2023/07/16 11:32:34;;;;;;;7.88;3.35;;;;;;;21.56;66.82;101325.00;5073968;28;20090;-37
2023/07/16 11:35:02;;;;;;;5.57;3.20;;;;;;;21.50;66.53;101335.25;5072067;28;20025;-37
2023/07/16 11:37:30;;;;;;;7.15;3.72;;;;;;;21.48;67.10;101323.72;5073361;28;20419;-36